This is the latest recevied weather packets stored in our database for station/object N8WJW. If no packets are shown the sender has not sent any weather packets the latest 10 day(s).
| Time | Temp. | Humidity | Pressure | Rain* | Wind** | Luminosity | Snow |
|---|---|---|---|---|---|---|---|
| 1777507497 | 7.78° C | 99% | 1011.6 hPa | 0 mm | - | 2 W/m² | - |
| 1777507194 | 7.78° C | 99% | 1011.5 hPa | 0 mm | - | 3 W/m² | - |
| 1777506892 | 8.33° C | 99% | 1011.5 hPa | 0 mm | - | 3 W/m² | - |
| 1777506589 | 8.33° C | 99% | 1011.2 hPa | 0 mm | - | 7 W/m² | - |
| 1777506284 | 8.33° C | 99% | 1011.2 hPa | 0 mm | - | 20 W/m² | - |
| 1777505981 | 8.33° C | 99% | 1011.2 hPa | 0 mm | - | 14 W/m² | - |
| 1777505676 | 8.33° C | 99% | 1011.4 hPa | 0 mm | - | 7 W/m² | - |
| 1777505374 | 8.33° C | 99% | 1011.3 hPa | 0 mm | - | 5 W/m² | - |
| 1777505070 | 8.33° C | 99% | 1011.3 hPa | 0 mm | - | 14 W/m² | - |
| 1777504767 | 8.33° C | 99% | 1011.3 hPa | 0 mm | - | 11 W/m² | - |
| 1777504465 | 8.33° C | 99% | 1011.3 hPa | 0 mm | - | 8 W/m² | - |
| 1777504160 | 8.33° C | 99% | 1011.1 hPa | 0 mm | - | 14 W/m² | - |
| 1777503856 | 8.33° C | 99% | 1010.8 hPa | 0 mm | - | 33 W/m² | - |
| 1777503552 | 8.33° C | 99% | 1011.2 hPa | 0 mm | - | 14 W/m² | - |
| 1777503249 | 8.33° C | 99% | 1011.2 hPa | 0 mm | - | 19 W/m² | - |
| 1777502946 | 8.33° C | 99% | 1011.1 hPa | 0 mm | - | 26 W/m² | - |
| 1777502643 | 8.33° C | 99% | 1011.1 hPa | 0 mm | - | 23 W/m² | - |
| 1777502340 | 8.33° C | 99% | 1011.2 hPa | 0 mm | - | 20 W/m² | - |
| 1777502036 | 8.33° C | 99% | 1011.2 hPa | 0 mm | - | 17 W/m² | - |
| 1777501733 | 8.33° C | 99% | 1011.1 hPa | 0 mm | - | 14 W/m² | - |
| 1777501431 | 8.89° C | 99% | 1011.1 hPa | 0 mm | - | 19 W/m² | - |
| 1777501128 | 8.89° C | 99% | 1011.1 hPa | 0 mm | - | 13 W/m² | - |
| 1777500826 | 8.89° C | 99% | 1011 hPa | 0 mm | - | 12 W/m² | - |
| 1777500523 | 8.89° C | 99% | 1010.9 hPa | 0 mm | - | 22 W/m² | - |
| 1777500219 | 8.89° C | 99% | 1010.5 hPa | 0 mm | - | 20 W/m² | - |
* Rain latest hour (hover to see other rain measurements)
** Current wind speed in m/s (hover to see current wind gust speed)